Time;durP1;ratioP1;P1;durP2;ratioP2;P2;SDS_P1;SDS_P2;PMS_P1;PMS_P2;Temp;Humidity;BMP_temperature;BMP_pressure;BME280_temperature;BME280_humidity;BME280_pressure;Samples;Min_cycle;Max_cycle;Signal;HPM_P1;HPM_P2
2022/01/25 00:10:52;;;;;;;10.53;9.43;;;;;;;3.21;100.00;100001.06;10333358;28;20128;-57
2022/01/25 00:26:58;;;;;;;11.27;9.35;;;;;;;3.23;100.00;99982.38;10339962;28;20111;-56
2022/01/25 00:32:04;;;;;;;9.27;8.20;;;;;;;3.20;100.00;99987.84;10350050;28;20121;-54
2022/01/25 00:37:08;;;;;;;9.93;8.82;;;;;;;3.18;100.00;99984.38;10350209;28;20104;-58
2022/01/25 00:42:11;;;;;;;9.88;8.88;;;;;;;3.16;100.00;99983.59;10344465;28;20127;-55
2022/01/25 00:47:17;;;;;;;10.65;8.18;;;;;;;3.16;100.00;99997.78;10345983;28;20113;-57
2022/01/25 00:53:52;;;;;;;5.18;4.68;;;;;;;3.13;100.00;99983.72;10328169;28;20125;-54
2022/01/25 00:57:46;;;;;;;7.97;6.32;;;;;;;3.07;100.00;99976.91;10338704;28;20902;-57
2022/01/25 01:02:51;;;;;;;6.32;5.13;;;;;;;3.07;100.00;99969.81;10338722;28;20069;-57
2022/01/25 01:07:54;;;;;;;9.45;7.22;;;;;;;3.10;100.00;99967.94;10338599;28;20087;-55
2022/01/25 01:13:43;;;;;;;10.23;9.15;;;;;;;3.08;100.00;99968.88;10336473;28;20042;-53
2022/01/25 01:29:25;;;;;;;11.07;9.97;;;;;;;3.04;100.00;99959.28;10340470;28;20141;-54
2022/01/25 01:34:59;;;;;;;9.00;7.18;;;;;;;3.08;100.00;99955.56;10328489;28;20054;-58
2022/01/25 01:40:20;;;;;;;9.82;8.25;;;;;;;3.04;100.00;99948.63;10327665;28;20077;-54
2022/01/25 01:45:33;;;;;;;12.20;10.20;;;;;;;3.06;100.00;99957.41;10322915;28;20050;-53
2022/01/25 01:50:39;;;;;;;10.70;9.60;;;;;;;3.03;100.00;99956.72;10331017;28;20165;-55
2022/01/25 01:55:42;;;;;;;12.48;11.18;;;;;;;2.96;100.00;99947.28;10319735;28;20565;-60
2022/01/25 02:00:49;;;;;;;11.75;10.65;;;;;;;2.92;100.00;99944.78;10333672;28;20042;-57
2022/01/25 02:05:53;;;;;;;12.98;11.77;;;;;;;2.95;100.00;99956.19;10340678;28;20069;-57
2022/01/25 02:10:56;;;;;;;11.98;10.88;;;;;;;2.92;100.00;99939.47;10351033;28;20513;-55
2022/01/25 02:16:04;;;;;;;12.82;11.48;;;;;;;2.93;100.00;99937.66;10351036;28;20548;-54
2022/01/25 02:26:30;;;;;;;13.38;12.07;;;;;;;2.91;100.00;99932.41;10352956;28;20117;-55
2022/01/25 02:31:36;;;;;;;13.25;11.90;;;;;;;2.88;100.00;99921.06;10351244;28;20041;-54
2022/01/25 02:36:41;;;;;;;14.05;12.60;;;;;;;2.85;100.00;99931.84;10334425;28;20053;-58
2022/01/25 02:41:44;;;;;;;14.57;13.10;;;;;;;2.91;100.00;99926.22;10351563;28;20046;-57
2022/01/25 02:52:09;;;;;;;14.50;13.05;;;;;;;2.91;100.00;99935.06;10343981;28;20054;-55
2022/01/25 02:57:13;;;;;;;12.52;11.30;;;;;;;2.88;100.00;99926.38;10339231;28;20061;-53
2022/01/25 03:02:16;;;;;;;12.27;11.10;;;;;;;2.89;100.00;99918.31;10333703;28;20050;-59
2022/01/25 03:07:21;;;;;;;12.13;11.02;;;;;;;2.88;100.00;99913.06;10337473;28;20060;-59
2022/01/25 03:12:34;;;;;;;13.32;12.02;;;;;;;2.83;100.00;99907.09;10325650;28;20050;-56
2022/01/25 03:17:45;;;;;;;13.50;12.18;;;;;;;2.81;100.00;99893.00;10340064;28;20050;-61
2022/01/25 03:22:59;;;;;;;14.15;12.70;;;;;;;2.76;100.00;99894.06;10339084;28;20133;-57
2022/01/25 03:28:02;;;;;;;14.23;12.73;;;;;;;2.68;100.00;99882.09;10347096;28;20100;-55
2022/01/25 03:33:05;;;;;;;13.85;12.35;;;;;;;2.64;100.00;99873.41;10331697;28;20505;-56
2022/01/25 03:38:10;;;;;;;13.35;12.07;;;;;;;2.66;100.00;99882.16;10315675;28;20046;-58
2022/01/25 03:43:15;;;;;;;15.57;13.73;;;;;;;2.64;100.00;99880.53;10335028;28;20043;-56
2022/01/25 03:53:40;;;;;;;14.40;12.88;;;;;;;2.65;100.00;99882.25;10341907;28;20116;-58
2022/01/25 03:58:43;;;;;;;14.18;12.63;;;;;;;2.59;100.00;99872.75;10336605;28;20057;-58
2022/01/25 04:03:56;;;;;;;15.85;14.15;;;;;;;2.58;100.00;99874.56;10354322;28;20038;-60
2022/01/25 04:09:02;;;;;;;15.88;14.07;;;;;;;2.51;100.00;99865.16;10351784;28;20643;-59
2022/01/25 04:14:06;;;;;;;15.93;13.65;;;;;;;2.50;100.00;99871.41;10347560;28;20394;-60
2022/01/25 04:19:13;;;;;;;16.70;14.95;;;;;;;2.47;100.00;99880.41;10346324;28;20139;-59
2022/01/25 04:29:38;;;;;;;15.73;14.02;;;;;;;2.43;100.00;99873.50;10345162;28;20422;-62
2022/01/25 04:34:46;;;;;;;15.40;13.90;;;;;;;2.41;100.00;99875.34;10343265;28;20045;-58
2022/01/25 04:50:55;;;;;;;14.75;13.15;;;;;;;2.35;100.00;99865.03;10337382;28;20061;-59
2022/01/25 04:56:07;;;;;;;12.05;10.93;;;;;;;2.31;100.00;99869.63;10338743;28;20042;-60
2022/01/25 05:01:17;;;;;;;11.93;10.57;;;;;;;2.31;100.00;99877.63;10335522;28;20139;-60
2022/01/25 05:06:21;;;;;;;11.73;10.52;;;;;;;2.29;100.00;99874.16;10319080;28;20325;-61
2022/01/25 05:11:30;;;;;;;12.63;10.63;;;;;;;2.30;100.00;99872.34;10334540;28;20051;-60
2022/01/25 05:16:37;;;;;;;15.13;13.40;;;;;;;2.24;100.00;99865.53;10327398;28;20054;-59
2022/01/25 05:27:04;;;;;;;11.98;10.75;;;;;;;2.19;100.00;99874.66;10337661;28;20129;-60
2022/01/25 05:32:08;;;;;;;12.43;11.15;;;;;;;2.17;100.00;99866.75;10325950;28;20081;-58
2022/01/25 05:37:12;;;;;;;13.52;11.32;;;;;;;2.13;100.00;99870.50;10339668;28;20146;-54
2022/01/25 05:47:37;;;;;;;11.00;9.90;;;;;;;2.10;100.00;99876.81;10327556;28;20125;-61
2022/01/25 05:52:41;;;;;;;12.20;10.52;;;;;;;2.10;100.00;99876.81;10350240;28;20038;-59
2022/01/25 05:57:46;;;;;;;8.52;7.72;;;;;;;2.10;100.00;99865.34;10355077;28;20049;-59
2022/01/25 06:02:53;;;;;;;11.32;10.23;;;;;;;2.08;100.00;99862.72;10326642;28;20439;-60
2022/01/25 06:07:56;;;;;;;11.73;10.63;;;;;;;2.04;100.00;99865.59;10354898;28;20054;-62
2022/01/25 06:13:01;;;;;;;12.93;11.63;;;;;;;2.06;100.00;99877.88;10330305;28;20042;-56
2022/01/25 06:18:05;;;;;;;13.60;12.20;;;;;;;2.03;100.00;99879.84;10352253;28;20045;-58
2022/01/25 06:23:08;;;;;;;13.13;11.75;;;;;;;2.02;100.00;99878.97;10350788;28;20137;-58
2022/01/25 06:28:13;;;;;;;15.18;13.68;;;;;;;2.05;100.00;99881.50;10346714;28;20054;-55
2022/01/25 06:33:16;;;;;;;19.05;14.40;;;;;;;2.09;100.00;99890.19;10343515;28;20044;-59
2022/01/25 06:38:19;;;;;;;14.55;13.05;;;;;;;2.09;100.00;99885.72;10350000;28;20050;-57
2022/01/25 06:43:24;;;;;;;14.85;13.35;;;;;;;2.12;100.00;99885.59;10342766;28;20045;-57
2022/01/25 06:48:28;;;;;;;14.88;13.38;;;;;;;2.09;100.00;99885.72;10334081;28;20050;-59
2022/01/25 06:53:30;;;;;;;15.75;13.70;;;;;;;2.09;100.00;99892.84;10343076;28;20108;-61
2022/01/25 06:58:35;;;;;;;14.30;12.85;;;;;;;2.11;100.00;99894.50;10341609;28;20058;-61
2022/01/25 07:03:38;;;;;;;16.08;13.65;;;;;;;2.11;100.00;99899.81;10337927;28;20047;-61
2022/01/25 07:08:43;;;;;;;13.23;11.93;;;;;;;2.03;100.00;99906.41;10340156;28;20050;-58
2022/01/25 07:13:48;;;;;;;13.15;11.85;;;;;;;2.00;100.00;99897.66;10316315;28;20634;-61
2022/01/25 07:18:51;;;;;;;14.15;12.75;;;;;;;1.93;100.00;99890.03;10330670;28;20130;-61
2022/01/25 07:23:54;;;;;;;15.02;13.40;;;;;;;1.90;100.00;99899.00;10336879;28;20454;-59
2022/01/25 07:28:59;;;;;;;15.45;13.85;;;;;;;1.85;100.00;99904.53;10329757;28;20054;-62
2022/01/25 07:34:02;;;;;;;13.88;12.52;;;;;;;1.88;100.00;99900.88;10335561;28;20056;-61
2022/01/25 07:39:13;;;;;;;17.30;14.10;;;;;;;1.85;100.00;99901.88;10325768;28;20038;-60
2022/01/25 07:44:26;;;;;;;14.20;12.70;;;;;;;1.81;100.00;99900.31;10343031;28;20108;-59
2022/01/25 07:49:37;;;;;;;14.75;13.25;;;;;;;1.79;100.00;99899.50;10353961;28;20494;-56
2022/01/25 07:54:48;;;;;;;;;;;;;;;1.74;100.00;99906.81;10355228;28;20457;-61
2022/01/25 07:59:53;;;;;;;15.10;13.13;;;;;;;1.71;100.00;99900.75;10356367;28;20335;-58
2022/01/25 08:04:56;;;;;;;17.27;14.13;;;;;;;1.74;100.00;99912.13;10346626;28;20437;-59
2022/01/25 08:10:19;;;;;;;16.48;13.82;;;;;;;1.66;100.00;99908.94;10350314;28;20058;-58
2022/01/25 08:15:54;;;;;;;13.27;11.88;;;;;;;1.66;100.00;99909.78;10263556;28;20058;-57
2022/01/25 08:21:07;;;;;;;13.20;11.85;;;;;;;1.64;100.00;99922.31;10252493;28;20740;-58
2022/01/25 08:26:24;;;;;;;12.50;10.80;;;;;;;1.56;100.00;99903.16;10265718;28;20109;-56
2022/01/25 08:31:49;;;;;;;12.98;10.13;;;;;;;1.56;100.00;99916.44;10250275;28;20064;-62
2022/01/25 08:37:06;;;;;;;15.02;13.00;;;;;;;1.64;100.00;99924.09;10280600;28;20065;-58
2022/01/25 08:42:18;;;;;;;13.30;11.80;;;;;;;1.63;100.00;99932.97;10337499;28;20063;-61
2022/01/25 08:47:26;;;;;;;13.93;12.43;;;;;;;1.65;100.00;99934.63;10334502;28;20049;-54
2022/01/25 08:52:46;;;;;;;11.18;9.77;;;;;;;1.57;100.00;99943.88;10333555;28;20058;-56
2022/01/25 08:58:12;;;;;;;10.82;9.20;;;;;;;1.64;100.00;99937.38;10306506;28;20058;-58
2022/01/25 09:03:16;;;;;;;9.98;8.82;;;;;;;1.62;100.00;99939.22;10330283;28;20567;-56
2022/01/25 09:08:22;;;;;;;11.85;9.82;;;;;;;1.63;100.00;99939.19;10330612;28;20189;-59
2022/01/25 09:13:32;;;;;;;15.38;12.10;;;;;;;1.59;100.00;99936.72;10315215;28;20060;-59
2022/01/25 09:18:37;;;;;;;16.55;12.27;;;;;;;1.50;100.00;99944.13;10325843;28;20232;-55
2022/01/25 09:23:40;;;;;;;17.67;12.82;;;;;;;1.46;100.00;99950.53;10322807;28;20714;-56
2022/01/25 09:28:43;;;;;;;18.23;14.55;;;;;;;1.45;100.00;99948.81;10336950;28;20499;-53
2022/01/25 09:33:48;;;;;;;23.35;15.27;;;;;;;1.48;100.00;99940.69;10307748;28;20134;-56
2022/01/25 09:38:52;;;;;;;18.95;14.18;;;;;;;1.43;100.00;99942.69;10342806;28;20526;-60
2022/01/25 09:43:55;;;;;;;20.05;14.73;;;;;;;1.44;100.00;99954.16;10347407;28;20046;-56
2022/01/25 09:49:00;;;;;;;21.58;15.13;;;;;;;1.47;100.00;99948.72;10352276;28;20056;-56
2022/01/25 09:54:03;;;;;;;20.95;15.30;;;;;;;1.45;100.00;99950.59;10346068;28;20061;-57
2022/01/25 09:59:06;;;;;;;23.83;15.10;;;;;;;1.47;100.00;99962.00;10329655;28;20528;-56
2022/01/25 10:04:33;;;;;;;24.17;15.73;;;;;;;1.49;100.00;99971.63;10342680;28;20053;-58
2022/01/25 10:09:39;;;;;;;21.55;15.98;;;;;;;1.54;100.00;99961.69;10332913;28;20140;-56
2022/01/25 10:14:54;;;;;;;22.83;15.95;;;;;;;1.50;100.00;99970.69;10340588;28;20046;-61
2022/01/25 10:19:58;;;;;;;22.38;15.73;;;;;;;1.58;100.00;99959.75;10343159;28;20052;-59
2022/01/25 10:25:02;;;;;;;21.45;15.18;;;;;;;1.56;100.00;99961.59;10333906;28;20042;-58
2022/01/25 10:30:08;;;;;;;21.05;14.35;;;;;;;1.62;100.00;99960.47;10319521;28;20395;-60
2022/01/25 10:35:17;;;;;;;20.60;14.60;;;;;;;1.61;100.00;99942.81;10336511;28;20050;-60
2022/01/25 10:40:36;;;;;;;21.77;13.75;;;;;;;1.64;100.00;99945.34;10335294;28;20042;-59
2022/01/25 10:45:39;;;;;;;17.95;13.68;;;;;;;1.63;100.00;99947.16;10332595;28;20042;-55
2022/01/25 10:50:46;;;;;;;18.70;13.35;;;;;;;1.64;100.00;99932.94;10331920;28;20126;-55
2022/01/25 10:55:52;;;;;;;19.38;13.70;;;;;;;1.66;100.00;99935.50;10323629;28;20525;-52
2022/01/25 11:00:56;;;;;;;22.13;14.20;;;;;;;1.68;100.00;99923.88;10336566;28;20116;-54
2022/01/25 11:06:11;;;;;;;19.95;14.57;;;;;;;1.73;100.00;99925.47;10330670;28;20050;-55
2022/01/25 11:11:24;;;;;;;18.98;14.25;;;;;;;1.72;100.00;99923.75;10337940;28;20469;-58
2022/01/25 11:16:27;;;;;;;20.52;15.18;;;;;;;1.68;100.00;99912.41;10333333;28;20045;-58
2022/01/25 11:21:35;;;;;;;21.80;14.40;;;;;;;1.65;100.00;99907.22;10339461;28;20058;-59
2022/01/25 11:26:39;;;;;;;20.13;14.13;;;;;;;1.65;100.00;99901.91;10332086;28;20157;-57
2022/01/25 11:31:45;;;;;;;24.45;14.50;;;;;;;1.61;100.00;99900.31;10337886;28;20054;-52
2022/01/25 11:36:55;;;;;;;22.23;13.82;;;;;;;1.62;100.00;99896.72;10353658;28;20552;-54
2022/01/25 11:42:04;;;;;;;20.58;12.00;;;;;;;1.63;100.00;99896.66;10355057;28;20148;-55
2022/01/25 11:47:11;;;;;;;18.27;12.80;;;;;;;1.65;100.00;99885.97;10355509;28;20046;-53
2022/01/25 11:52:17;;;;;;;18.55;13.32;;;;;;;1.67;100.00;99884.09;10353072;28;20495;-55
2022/01/25 11:57:23;;;;;;;18.67;12.82;;;;;;;1.63;100.00;99886.03;10337882;28;20073;-54
2022/01/25 12:02:37;;;;;;;17.33;12.77;;;;;;;1.59;100.00;99880.94;10329922;28;20092;-57
2022/01/25 12:08:05;;;;;;;15.43;9.85;;;;;;;1.59;100.00;99880.94;10349397;28;20057;-59
2022/01/25 12:13:18;;;;;;;12.52;9.52;;;;;;;1.63;100.00;99871.88;10351347;23;20121;-83
2022/01/25 12:18:53;;;;;;;10.23;8.55;;;;;;;1.61;100.00;99863.09;10360102;28;20074;-81
2022/01/25 12:24:21;;;;;;;9.35;7.93;;;;;;;1.64;100.00;99852.34;10350039;28;20069;-79
2022/01/25 12:29:37;;;;;;;16.10;11.65;;;;;;;1.67;100.00;99852.22;10356300;28;20125;-80
2022/01/25 12:35:03;;;;;;;14.70;10.57;;;;;;;1.66;100.00;99853.16;10342267;28;20145;-81
2022/01/25 12:40:32;;;;;;;14.95;11.38;;;;;;;1.63;100.00;99850.63;10369734;28;20561;-80
2022/01/25 12:45:38;;;;;;;15.73;11.32;;;;;;;1.65;100.00;99848.78;10345576;28;20069;-81
2022/01/25 12:50:43;;;;;;;14.00;10.15;;;;;;;1.65;100.00;99838.16;10359720;28;20134;-81
2022/01/25 12:55:49;;;;;;;11.85;8.75;;;;;;;1.65;100.00;99843.47;10342812;28;20046;-83
2022/01/25 13:00:55;;;;;;;11.05;8.93;;;;;;;1.66;100.00;99838.06;10343517;28;20040;-81
2022/01/25 13:06:02;;;;;;;11.32;7.93;;;;;;;1.66;100.00;99847.84;10349089;28;20046;-80
2022/01/25 13:11:21;;;;;;;9.43;7.78;;;;;;;1.64;100.00;99824.00;10361025;28;20077;-81
2022/01/25 13:16:43;;;;;;;10.43;7.50;;;;;;;1.67;100.00;99815.03;10334994;28;20503;-82
2022/01/25 13:21:53;;;;;;;9.07;7.20;;;;;;;1.66;100.00;99821.28;10330418;28;20052;-83
2022/01/25 13:27:14;;;;;;;10.85;8.07;;;;;;;1.70;100.00;99825.53;10327224;28;20042;-81
2022/01/25 13:32:21;;;;;;;10.95;7.50;;;;;;;1.65;100.00;99828.38;10356081;28;20080;-79
2022/01/25 13:37:25;;;;;;;9.65;7.07;;;;;;;1.64;100.00;99820.47;10356678;28;20048;-84
2022/01/25 13:42:35;;;;;;;8.40;6.78;;;;;;;1.64;100.00;99818.69;10355594;28;20149;-76
2022/01/25 13:47:38;;;;;;;8.00;6.20;;;;;;;1.64;100.00;99813.38;10375403;22;20058;-60
2022/01/25 13:52:43;;;;;;;9.15;6.47;;;;;;;1.66;100.00;99808.00;10316939;28;20060;-56
2022/01/25 13:57:48;;;;;;;9.70;6.97;;;;;;;1.72;100.00;99804.19;10316570;28;20210;-53
2022/01/25 14:02:53;;;;;;;6.88;5.32;;;;;;;1.71;100.00;99795.34;10316323;28;20074;-60
2022/01/25 14:07:56;;;;;;;7.20;4.95;;;;;;;1.68;100.00;99798.16;10300245;28;20520;-57
2022/01/25 14:23:44;;;;;;;7.25;6.13;;;;;;;1.71;100.00;99800.66;10298670;28;20054;-56
2022/01/25 14:28:54;;;;;;;9.27;6.38;;;;;;;1.69;100.00;99806.03;10329412;28;20047;-54
2022/01/25 14:33:59;;;;;;;7.78;6.63;;;;;;;1.70;100.00;99804.25;10304129;28;20510;-55
2022/01/25 14:39:05;;;;;;;8.70;6.97;;;;;;;1.69;100.00;99808.69;10322199;28;20050;-57
2022/01/25 14:44:12;;;;;;;10.02;7.90;;;;;;;1.61;100.00;99799.34;10302933;28;20130;-56
2022/01/25 14:49:21;;;;;;;9.77;8.27;;;;;;;1.61;100.00;99804.66;10326889;28;20396;-54
2022/01/25 14:54:27;;;;;;;11.98;8.95;;;;;;;1.44;100.00;99797.47;10302757;28;20406;-57
2022/01/25 14:59:33;;;;;;;12.68;9.93;;;;;;;1.46;100.00;99795.59;10323958;28;20085;-64
2022/01/25 15:04:38;;;;;;;10.93;8.55;;;;;;;1.40;100.00;99802.06;10321983;28;20133;-60
2022/01/25 15:09:50;;;;;;;10.27;7.95;;;;;;;1.35;100.00;99794.31;10326798;28;20112;-60
2022/01/25 15:14:58;;;;;;;;;;;;;;;1.29;100.00;99791.94;10318983;28;20035;-56
2022/01/25 15:20:02;;;;;;;9.13;7.10;;;;;;;1.42;100.00;99794.88;10319824;28;19929;-60
2022/01/25 15:25:06;;;;;;;10.43;8.18;;;;;;;1.44;100.00;99803.66;10330997;28;20070;-57
2022/01/25 15:30:12;;;;;;;9.05;7.30;;;;;;;1.39;100.00;99805.63;10322084;28;20046;-58
2022/01/25 15:35:17;;;;;;;7.28;5.93;;;;;;;1.42;100.00;99788.69;10322571;28;20050;-58
2022/01/25 15:40:22;;;;;;;8.85;6.65;;;;;;;1.42;100.00;99794.00;10330646;28;20073;-57
2022/01/25 15:45:29;;;;;;;9.30;7.25;;;;;;;1.40;100.00;99788.78;10322624;28;20125;-55
2022/01/25 15:50:33;;;;;;;11.73;8.98;;;;;;;1.42;100.00;99791.34;10321885;28;20061;-56
2022/01/25 15:55:36;;;;;;;13.32;8.90;;;;;;;1.39;100.00;99795.03;10321094;28;20461;-56
2022/01/25 16:00:46;;;;;;;12.02;9.27;;;;;;;1.37;100.00;99791.56;10324677;28;20124;-58
2022/01/25 16:05:51;;;;;;;14.70;9.20;;;;;;;1.37;100.00;99812.81;10321608;28;20066;-52
2022/01/25 16:10:58;;;;;;;11.43;8.57;;;;;;;1.28;100.00;99813.22;10304743;28;20100;-54
2022/01/25 16:16:03;;;;;;;11.25;8.63;;;;;;;1.26;100.00;99810.66;10322668;28;20070;-56
2022/01/25 16:21:10;;;;;;;12.68;9.30;;;;;;;1.28;100.00;99819.41;10312684;28;20105;-57
2022/01/25 16:26:15;;;;;;;14.02;9.85;;;;;;;1.28;100.00;99819.41;10311594;28;20070;-61
2022/01/25 16:31:23;;;;;;;13.82;10.00;;;;;;;1.29;100.00;99825.56;10323175;28;20050;-57
2022/01/25 16:36:26;;;;;;;12.60;10.13;;;;;;;1.27;100.00;99832.75;10308524;28;20466;-54
2022/01/25 16:41:31;;;;;;;15.40;11.18;;;;;;;1.27;100.00;99832.75;10319878;28;20479;-57
2022/01/25 16:46:37;;;;;;;16.10;10.88;;;;;;;1.26;100.00;99841.63;10317866;28;20054;-57
2022/01/25 16:51:40;;;;;;;15.95;11.52;;;;;;;1.23;100.00;99842.63;10320682;28;20085;-57
2022/01/25 16:56:44;;;;;;;18.42;12.65;;;;;;;1.26;100.00;99846.94;10323356;28;20050;-57
2022/01/25 17:01:58;;;;;;;18.13;11.45;;;;;;;1.13;100.00;99858.09;10361958;28;20048;-61
2022/01/25 17:07:05;;;;;;;14.93;11.32;;;;;;;1.19;100.00;99851.66;10367240;28;20076;-61
2022/01/25 17:12:10;;;;;;;17.63;12.23;;;;;;;1.18;100.00;99845.50;10342492;28;20046;-59
2022/01/25 17:17:35;;;;;;;19.45;12.60;;;;;;;1.12;100.00;99845.75;10313522;28;20391;-54
2022/01/25 17:22:39;;;;;;;18.20;12.63;;;;;;;1.08;100.00;99846.81;10312081;28;20050;-57
2022/01/25 17:27:42;;;;;;;18.13;11.77;;;;;;;1.07;100.00;99845.94;10320371;28;20046;-59
2022/01/25 17:32:47;;;;;;;22.08;12.57;;;;;;;1.11;100.00;99844.03;10301314;28;20348;-61
2022/01/25 17:37:50;;;;;;;19.52;13.13;;;;;;;1.11;100.00;99844.03;10316217;28;20051;-59
2022/01/25 17:42:53;;;;;;;15.02;11.25;;;;;;;0.96;100.00;99837.56;10296813;28;20061;-59
2022/01/25 17:47:58;;;;;;;15.88;11.48;;;;;;;1.00;100.00;99848.94;10301958;28;20050;-57
2022/01/25 17:53:01;;;;;;;14.63;10.32;;;;;;;0.96;100.00;99844.69;10312759;28;20134;-60
2022/01/25 17:58:05;;;;;;;10.98;8.70;;;;;;;0.96;100.00;99842.03;10316037;28;20064;-59
2022/01/25 18:03:09;;;;;;;11.25;7.85;;;;;;;1.00;100.00;99831.22;10321215;28;20498;-59
2022/01/25 18:08:13;;;;;;;9.20;7.00;;;;;;;1.03;100.00;99830.22;10323095;28;20074;-55
2022/01/25 18:13:16;;;;;;;12.02;8.95;;;;;;;1.02;100.00;99841.75;10322704;28;20484;-61
2022/01/25 18:18:21;;;;;;;14.23;9.50;;;;;;;1.05;100.00;99852.25;10324146;28;20089;-58
2022/01/25 18:23:27;;;;;;;13.05;8.73;;;;;;;1.04;100.00;99854.06;10321926;28;20038;-62
2022/01/25 18:28:30;;;;;;;11.38;8.82;;;;;;;1.06;100.00;99867.25;10320875;28;20038;-62
2022/01/25 18:33:35;;;;;;;11.88;8.88;;;;;;;1.12;100.00;99863.47;10322921;28;20060;-59
2022/01/25 18:38:38;;;;;;;12.77;9.40;;;;;;;1.07;100.00;99872.47;10307565;28;20464;-62
2022/01/25 18:43:42;;;;;;;10.15;8.73;;;;;;;1.02;100.00;99863.88;10321324;28;20042;-62
2022/01/25 18:48:46;;;;;;;12.35;8.35;;;;;;;1.04;100.00;99856.72;10318119;28;20058;-61
2022/01/25 18:53:50;;;;;;;10.90;8.52;;;;;;;1.06;100.00;99864.59;10306238;28;20054;-62
2022/01/25 18:58:53;;;;;;;12.00;9.38;;;;;;;1.00;100.00;99862.22;10322641;28;20060;-58
2022/01/25 19:03:59;;;;;;;12.93;9.35;;;;;;;1.04;100.00;99847.88;10320686;28;20050;-62
2022/01/25 19:09:06;;;;;;;13.13;9.75;;;;;;;1.05;100.00;99854.91;10323049;28;20660;-57
2022/01/25 19:14:09;;;;;;;12.13;9.55;;;;;;;1.03;100.00;99846.13;10316365;28;20052;-58
2022/01/25 19:19:16;;;;;;;15.27;11.07;;;;;;;1.03;100.00;99848.78;10323058;28;20049;-53
2022/01/25 19:24:21;;;;;;;14.77;10.43;;;;;;;1.01;100.00;99838.25;10319687;28;20466;-61
2022/01/25 19:29:25;;;;;;;16.77;11.52;;;;;;;1.00;100.00;99841.84;10320237;28;20057;-57
2022/01/25 19:34:30;;;;;;;16.67;11.07;;;;;;;1.01;100.00;99853.31;10318305;28;20049;-60
2022/01/25 19:39:33;;;;;;;16.20;10.68;;;;;;;1.01;100.00;99848.00;10320462;28;20141;-58
2022/01/25 19:44:37;;;;;;;14.88;11.50;;;;;;;0.99;100.00;99847.22;10319469;28;20483;-56
2022/01/25 19:49:42;;;;;;;16.27;11.70;;;;;;;1.03;100.00;99856.75;10316676;28;20117;-57
2022/01/25 19:54:45;;;;;;;16.55;12.00;;;;;;;0.98;100.00;99853.44;10319372;28;20069;-58
2022/01/25 19:59:50;;;;;;;14.38;11.25;;;;;;;0.96;100.00;99850.84;10317867;28;20041;-60
2022/01/25 20:04:58;;;;;;;12.77;10.85;;;;;;;0.93;100.00;99851.00;10313824;28;20052;-56
2022/01/25 20:10:04;;;;;;;14.45;11.38;;;;;;;0.97;100.00;99841.97;10302167;28;20129;-57
2022/01/25 20:15:10;;;;;;;13.45;11.15;;;;;;;0.97;100.00;99846.41;10318192;28;20042;-56
2022/01/25 20:20:24;;;;;;;17.08;12.27;;;;;;;1.00;100.00;99838.34;10318434;28;20089;-61
2022/01/25 20:25:41;;;;;;;17.02;12.50;;;;;;;1.05;100.00;99836.31;10299293;28;20057;-58
2022/01/25 20:30:58;;;;;;;17.88;12.63;;;;;;;1.04;100.00;99826.63;10318461;28;20101;-61
2022/01/25 20:36:06;;;;;;;16.60;13.13;;;;;;;0.97;100.00;99817.22;10296787;28;20061;-57
2022/01/25 20:41:10;;;;;;;14.80;11.80;;;;;;;0.97;100.00;99819.88;10316110;28;20038;-58
2022/01/25 20:46:15;;;;;;;17.30;11.75;;;;;;;0.97;100.00;99809.25;10299631;28;20406;-56
2022/01/25 20:51:22;;;;;;;14.73;11.07;;;;;;;0.87;100.00;99804.34;10274037;28;20447;-55
2022/01/25 20:56:25;;;;;;;15.20;11.45;;;;;;;0.87;100.00;99796.41;10272744;28;20046;-59
2022/01/25 21:01:31;;;;;;;15.07;10.35;;;;;;;0.86;100.00;99791.13;10275206;28;20046;-58
2022/01/25 21:06:43;;;;;;;14.57;10.30;;;;;;;0.84;100.00;99793.00;10277608;28;20071;-58
2022/01/25 21:11:48;;;;;;;14.80;11.32;;;;;;;0.82;100.00;99798.38;10273210;28;20498;-56
2022/01/25 21:16:51;;;;;;;16.23;10.85;;;;;;;0.86;100.00;99789.38;10276033;28;20889;-59
2022/01/25 21:21:56;;;;;;;14.10;11.02;;;;;;;0.93;100.00;99792.63;10272851;28;20039;-58
2022/01/25 21:27:00;;;;;;;17.33;11.15;;;;;;;0.91;100.00;99802.44;10275304;28;20030;-60
2022/01/25 21:32:06;;;;;;;14.45;10.70;;;;;;;0.95;100.00;99789.88;10284725;28;20066;-56
2022/01/25 21:37:11;;;;;;;13.13;10.07;;;;;;;0.92;100.00;99801.50;10271661;28;20046;-59
2022/01/25 21:42:15;;;;;;;12.32;10.20;;;;;;;0.95;100.00;99803.16;10271942;28;20049;-58
2022/01/25 21:47:19;;;;;;;14.32;9.93;;;;;;;1.00;100.00;99812.66;10275612;28;20042;-55
2022/01/25 21:52:25;;;;;;;14.02;11.30;;;;;;;1.04;100.00;99811.59;10310110;28;20103;-59
2022/01/25 21:57:28;;;;;;;14.80;9.93;;;;;;;1.04;100.00;99811.59;10314112;28;20046;-57
2022/01/25 22:02:32;;;;;;;12.15;9.68;;;;;;;1.07;100.00;99797.31;10312840;28;20070;-56
2022/01/25 22:07:45;;;;;;;13.75;10.38;;;;;;;1.08;100.00;99796.38;10313428;28;20476;-56
2022/01/25 22:12:52;;;;;;;12.50;10.00;;;;;;;1.09;100.00;99787.50;10310619;28;20142;-55
2022/01/25 22:17:55;;;;;;;13.30;10.63;;;;;;;0.99;100.00;99786.19;10313458;28;20090;-54
2022/01/25 22:23:01;;;;;;;12.75;10.27;;;;;;;1.00;100.00;99783.44;10315953;28;20109;-59
2022/01/25 22:28:05;;;;;;;14.05;11.27;;;;;;;0.97;100.00;99788.03;10313559;28;20456;-59
2022/01/25 22:33:08;;;;;;;15.65;11.50;;;;;;;0.92;100.00;99781.13;10314172;28;20113;-54
2022/01/25 22:38:12;;;;;;;16.83;11.32;;;;;;;0.98;100.00;99779.16;10296640;28;20125;-56
2022/01/25 22:43:23;;;;;;;14.13;11.35;;;;;;;0.95;100.00;99782.78;10294934;28;20057;-56
2022/01/25 22:48:34;;;;;;;15.50;13.02;;;;;;;0.93;100.00;99782.00;10317475;28;20506;-54
2022/01/25 22:53:40;;;;;;;16.17;12.25;;;;;;;0.89;100.00;99791.88;10318262;28;20046;-54
2022/01/25 22:58:45;;;;;;;14.82;11.73;;;;;;;0.97;100.00;99782.72;10304103;28;20518;-59
2022/01/25 23:03:49;;;;;;;16.50;12.60;;;;;;;0.96;100.00;99786.31;10319204;28;20112;-54
2022/01/25 23:08:53;;;;;;;14.68;12.20;;;;;;;0.87;100.00;99783.13;10321968;28;20061;-58
2022/01/25 23:14:04;;;;;;;15.73;12.32;;;;;;;0.87;100.00;99784.91;10318486;28;20136;-58
2022/01/25 23:19:24;;;;;;;17.42;13.77;;;;;;;0.85;100.00;99771.72;10319953;28;20129;-58
2022/01/25 23:24:28;;;;;;;15.05;12.43;;;;;;;0.82;100.00;99768.34;10317326;28;20125;-55
2022/01/25 23:29:32;;;;;;;17.42;13.93;;;;;;;0.92;100.00;99765.19;10304968;28;20134;-56
2022/01/25 23:34:53;;;;;;;18.33;14.32;;;;;;;0.94;100.00;99761.63;10321083;28;20082;-60
2022/01/25 23:40:03;;;;;;;16.98;13.45;;;;;;;0.92;100.00;99759.03;10323216;28;20042;-57
2022/01/25 23:45:08;;;;;;;16.10;13.02;;;;;;;0.98;100.00;99757.91;10300807;28;20061;-60
2022/01/25 23:50:17;;;;;;;19.60;14.77;;;;;;;0.97;100.00;99748.22;10319932;28;20054;-54
